createdAt,value
2023-11-25T00:01:42.486Z,4.03
2023-11-25T00:04:09.674Z,4.06
2023-11-25T00:06:38.035Z,3.93
2023-11-25T00:09:05.196Z,3.97
2023-11-25T00:11:32.236Z,3.99
2023-11-25T00:14:00.339Z,4.12
2023-11-25T00:16:27.493Z,3.93
2023-11-25T00:18:55.140Z,3.93
2023-11-25T00:21:22.202Z,3.95
2023-11-25T00:23:49.181Z,4.06
2023-11-25T00:26:16.272Z,4.18
2023-11-25T00:28:53.043Z,4.02
2023-11-25T00:31:20.336Z,3.91
2023-11-25T00:33:47.339Z,4.00
2023-11-25T00:36:14.334Z,3.92
2023-11-25T00:38:41.440Z,4.00
2023-11-25T00:41:08.414Z,3.96
2023-11-25T00:43:35.521Z,3.97
2023-11-25T00:46:04.429Z,4.06
2023-11-25T00:48:32.673Z,4.05
2023-11-25T00:50:59.701Z,4.05
2023-11-25T00:53:26.746Z,4.03
2023-11-25T00:55:53.746Z,4.08
2023-11-25T00:58:20.751Z,4.07
2023-11-25T01:00:48.076Z,4.09
2023-11-25T01:03:15.099Z,4.17
2023-11-25T01:05:42.217Z,4.15
2023-11-25T01:08:09.424Z,4.19
2023-11-25T01:10:36.657Z,4.23
2023-11-25T01:13:04.382Z,4.17
2023-11-25T01:15:31.528Z,4.11
2023-11-25T01:17:58.589Z,4.13
2023-11-25T01:20:25.593Z,4.09
2023-11-25T01:22:52.659Z,4.08
2023-11-25T01:25:19.798Z,4.10
2023-11-25T01:27:47.036Z,4.17
2023-11-25T01:30:14.694Z,4.23
2023-11-25T01:32:42.287Z,4.30
2023-11-25T01:35:09.514Z,4.14
2023-11-25T01:37:36.710Z,4.05
2023-11-25T01:40:06.909Z,4.07
2023-11-25T01:42:34.055Z,4.02
2023-11-25T01:45:01.101Z,4.09
2023-11-25T01:47:28.361Z,3.99
2023-11-25T01:49:55.515Z,3.91
2023-11-25T01:52:23.720Z,3.84
2023-11-25T01:54:52.325Z,3.82
2023-11-25T01:57:21.888Z,3.87
2023-11-25T01:59:50.004Z,3.92
2023-11-25T02:02:22.044Z,4.03
2023-11-25T02:04:49.274Z,3.96
2023-11-25T02:07:17.765Z,3.95
2023-11-25T02:09:45.048Z,3.90
2023-11-25T02:12:12.502Z,3.87
2023-11-25T02:14:42.266Z,3.84
2023-11-25T02:17:09.456Z,3.92
2023-11-25T02:19:36.592Z,3.86
2023-11-25T02:22:07.910Z,3.93
2023-11-25T02:24:37.985Z,3.83
2023-11-25T02:27:06.621Z,3.79
2023-11-25T02:29:34.261Z,3.84
2023-11-25T02:32:01.490Z,3.69
2023-11-25T02:34:28.973Z,3.55
2023-11-25T02:36:59.882Z,3.52
2023-11-25T02:39:29.034Z,3.52
2023-11-25T02:41:56.004Z,3.65
2023-11-25T02:44:23.193Z,3.53
2023-11-25T02:46:51.134Z,3.40
2023-11-25T02:49:18.399Z,3.32
2023-11-25T02:51:49.700Z,3.38
2023-11-25T02:54:17.660Z,3.31
2023-11-25T02:56:44.876Z,3.23
2023-11-25T02:59:13.936Z,3.20
2023-11-25T03:01:50.548Z,3.15
2023-11-25T03:04:21.214Z,3.16
2023-11-25T03:06:52.713Z,3.17
2023-11-25T03:09:20.438Z,3.16
2023-11-25T03:11:48.173Z,3.25
2023-11-25T03:14:17.567Z,3.32
2023-11-25T03:16:45.095Z,3.30
2023-11-25T03:19:12.632Z,3.27
2023-11-25T03:21:40.158Z,3.29
2023-11-25T03:24:09.470Z,3.41
2023-11-25T03:26:36.906Z,3.60
2023-11-25T03:29:04.039Z,3.56
2023-11-25T03:31:31.067Z,3.40
2023-11-25T03:33:58.286Z,3.30
2023-11-25T03:36:25.348Z,3.35
2023-11-25T03:38:52.552Z,3.49
2023-11-25T03:41:21.107Z,3.63
2023-11-25T03:43:48.178Z,3.73
2023-11-25T03:46:15.421Z,3.75
2023-11-25T03:54:18.915Z,3.64
2023-11-25T03:56:46.241Z,3.58
2023-11-25T03:59:13.243Z,3.48
2023-11-25T04:01:43.235Z,3.55
2023-11-25T04:04:12.080Z,3.50
2023-11-25T04:06:39.261Z,3.54
2023-11-25T04:09:06.436Z,3.64
2023-11-25T04:11:33.418Z,3.65
2023-11-25T04:14:00.834Z,3.62
2023-11-25T04:16:27.943Z,3.48
2023-11-25T04:18:55.700Z,3.48
2023-11-25T04:21:23.069Z,3.47
2023-11-25T04:23:54.264Z,3.41
2023-11-25T04:26:21.392Z,3.46
2023-11-25T04:28:49.137Z,3.53
2023-11-25T04:31:16.355Z,3.57
2023-11-25T04:33:43.549Z,3.64
2023-11-25T04:36:19.244Z,3.61
2023-11-25T04:38:47.676Z,3.59
2023-11-25T04:41:14.774Z,3.48
2023-11-25T04:43:41.839Z,3.43
2023-11-25T04:46:12.671Z,3.48
2023-11-25T04:48:40.311Z,3.42
2023-11-25T04:51:07.385Z,3.32
2023-11-25T04:53:34.426Z,3.35
2023-11-25T04:56:01.409Z,3.33
2023-11-25T04:58:28.544Z,3.31
2023-11-25T05:00:55.684Z,3.35
2023-11-25T05:03:23.268Z,3.37
2023-11-25T05:05:50.341Z,3.32
2023-11-25T05:08:18.285Z,3.21
2023-11-25T05:10:45.283Z,3.18
2023-11-25T05:13:14.097Z,3.22
2023-11-25T05:15:43.135Z,3.18
2023-11-25T05:18:10.107Z,3.07
2023-11-25T05:20:37.164Z,2.83
2023-11-25T05:23:07.204Z,2.61
2023-11-25T05:25:34.924Z,2.45
2023-11-25T05:28:02.169Z,2.41
2023-11-25T05:30:29.203Z,2.33
2023-11-25T05:32:56.235Z,2.31
2023-11-25T05:35:23.379Z,2.34
2023-11-25T05:37:50.576Z,2.46
2023-11-25T05:40:17.684Z,2.61
2023-11-25T05:42:49.989Z,2.71
2023-11-25T05:45:19.667Z,2.82
2023-11-25T05:47:47.059Z,2.89
2023-11-25T05:50:21.617Z,2.88
2023-11-25T05:52:49.420Z,2.88
2023-11-25T05:55:16.747Z,2.92
2023-11-25T05:57:45.831Z,2.91
2023-11-25T06:00:13.621Z,2.77
2023-11-25T06:02:40.953Z,2.72
2023-11-25T06:05:08.780Z,2.69
2023-11-25T06:07:36.209Z,2.85
2023-11-25T06:10:04.889Z,2.99
2023-11-25T06:12:33.244Z,2.98
2023-11-25T06:15:00.724Z,2.92
2023-11-25T06:17:28.092Z,2.79
2023-11-25T06:19:55.502Z,2.71
2023-11-25T06:22:22.992Z,2.60
2023-11-25T06:24:49.982Z,2.64
2023-11-25T06:27:21.089Z,2.68
2023-11-25T06:29:48.712Z,2.81
2023-11-25T06:32:15.692Z,2.87
2023-11-25T06:34:42.817Z,2.95
2023-11-25T06:37:09.889Z,2.97
2023-11-25T06:39:36.971Z,3.02
2023-11-25T06:42:07.450Z,3.01
2023-11-25T06:44:34.556Z,3.06
2023-11-25T06:47:01.912Z,3.12
2023-11-25T06:49:29.083Z,2.97
2023-11-25T06:51:56.150Z,2.89
2023-11-25T06:54:24.864Z,2.74
2023-11-25T06:56:52.387Z,2.77
2023-11-25T06:59:19.626Z,2.80
2023-11-25T07:01:47.391Z,2.74
2023-11-25T07:04:15.475Z,2.75
2023-11-25T07:06:42.494Z,2.65
2023-11-25T07:09:10.787Z,2.45
2023-11-25T07:11:38.565Z,2.34
2023-11-25T07:14:06.567Z,2.23
2023-11-25T07:16:34.730Z,2.28
2023-11-25T07:19:02.286Z,2.38
2023-11-25T07:21:29.267Z,2.63
2023-11-25T07:23:56.839Z,2.75
2023-11-25T07:26:24.065Z,2.83
2023-11-25T07:28:51.085Z,2.76
2023-11-25T07:31:18.229Z,2.68
2023-11-25T07:33:47.047Z,2.66
2023-11-25T07:36:15.088Z,2.61
2023-11-25T07:38:42.096Z,2.61
2023-11-25T07:41:16.759Z,2.61
2023-11-25T07:43:43.889Z,2.66
2023-11-25T07:46:12.676Z,2.70
2023-11-25T07:48:39.864Z,2.88
2023-11-25T07:51:06.877Z,2.92
2023-11-25T07:53:33.909Z,2.90
2023-11-25T07:56:02.487Z,2.85
2023-11-25T07:58:30.654Z,2.92
2023-11-25T08:00:59.602Z,2.91
2023-11-25T08:03:26.637Z,2.92
2023-11-25T08:05:54.420Z,2.92
2023-11-25T08:08:22.086Z,2.88
2023-11-25T08:10:49.383Z,2.88
2023-11-25T08:13:19.650Z,3.01
2023-11-25T08:15:46.891Z,3.08
2023-11-25T08:18:16.747Z,3.12
2023-11-25T08:20:43.805Z,3.03
2023-11-25T08:23:11.308Z,3.01
2023-11-25T08:25:38.488Z,2.89
2023-11-25T08:28:05.708Z,2.87
2023-11-25T08:30:32.698Z,2.82
2023-11-25T08:33:01.253Z,2.91
2023-11-25T08:35:28.359Z,2.94
2023-11-25T08:37:55.545Z,3.08
2023-11-25T08:40:23.334Z,3.03
2023-11-25T08:42:50.961Z,3.03
2023-11-25T08:45:18.250Z,3.00
2023-11-25T08:47:45.917Z,3.00
2023-11-25T08:50:17.412Z,3.03
2023-11-25T08:52:46.514Z,3.10
2023-11-25T08:55:18.705Z,3.03
2023-11-25T08:57:46.318Z,3.07
2023-11-25T09:00:19.970Z,3.11
2023-11-25T09:02:49.772Z,3.16
2023-11-25T09:05:17.116Z,3.19
2023-11-25T09:07:45.387Z,3.34
2023-11-25T09:10:12.839Z,3.46
2023-11-25T09:12:41.382Z,3.44
2023-11-25T09:15:10.180Z,3.51
2023-11-25T09:17:40.079Z,3.66
2023-11-25T09:20:11.376Z,3.89
2023-11-25T09:22:41.523Z,3.84
2023-11-25T09:25:13.537Z,3.96
2023-11-25T09:27:41.650Z,3.96
2023-11-25T09:30:13.267Z,3.97
2023-11-25T09:32:45.753Z,3.92
2023-11-25T09:35:14.325Z,3.94
2023-11-25T09:37:43.223Z,3.90
2023-11-25T09:40:16.525Z,3.86
2023-11-25T09:42:45.365Z,3.75
2023-11-25T09:45:14.245Z,3.67
2023-11-25T09:47:45.428Z,3.57
2023-11-25T09:50:17.727Z,3.62
2023-11-25T09:52:50.338Z,3.60
2023-11-25T09:55:20.072Z,3.53
2023-11-25T09:57:51.462Z,3.58
2023-11-25T10:00:19.190Z,3.57
2023-11-25T10:02:53.128Z,3.63
2023-11-25T10:05:20.210Z,3.65
2023-11-25T10:07:47.988Z,3.70
2023-11-25T10:10:17.926Z,3.80
2023-11-25T10:12:44.940Z,3.84
2023-11-25T10:15:12.009Z,3.89
2023-11-25T10:17:39.473Z,3.98
2023-11-25T10:20:24.074Z,3.88
2023-11-25T10:22:55.166Z,3.80
2023-11-25T10:25:23.011Z,3.64
2023-11-25T10:27:52.736Z,3.59
2023-11-25T10:30:22.176Z,3.52
2023-11-25T10:32:51.307Z,3.56
2023-11-25T10:35:20.213Z,3.56
2023-11-25T10:37:47.663Z,3.61
2023-11-25T10:40:18.365Z,3.62
2023-11-25T10:42:49.610Z,3.60
2023-11-25T10:45:17.594Z,3.67
2023-11-25T10:47:45.270Z,3.67
2023-11-25T10:50:14.841Z,3.73
2023-11-25T10:52:44.920Z,3.86
2023-11-25T10:55:12.309Z,3.90
2023-11-25T10:57:41.868Z,3.84
2023-11-25T11:00:13.022Z,3.87
2023-11-25T11:03:06.979Z,3.91
2023-11-25T11:05:50.588Z,4.09
2023-11-25T11:08:22.198Z,4.46
2023-11-25T11:10:55.858Z,4.87
2023-11-25T11:13:30.544Z,5.06
2023-11-25T11:16:01.660Z,4.84
2023-11-25T11:18:37.579Z,4.64
2023-11-25T11:21:07.899Z,4.47
2023-11-25T11:23:38.819Z,4.40
2023-11-25T11:26:29.467Z,4.32
2023-11-25T11:29:15.029Z,4.36
2023-11-25T11:31:48.479Z,4.35
2023-11-25T11:34:15.801Z,4.33
2023-11-25T11:36:42.804Z,4.20
2023-11-25T11:39:12.964Z,4.21
2023-11-25T11:41:40.513Z,4.27
2023-11-25T11:44:09.050Z,4.28
2023-11-25T11:46:40.111Z,4.40
2023-11-25T11:49:09.416Z,4.45
2023-11-25T11:51:36.703Z,4.65
2023-11-25T11:54:21.983Z,4.87
2023-11-25T11:57:02.373Z,4.82
2023-11-25T12:00:14.595Z,4.68
2023-11-25T12:02:44.558Z,4.64
2023-11-25T12:05:12.325Z,4.60
2023-11-25T12:07:40.160Z,4.59
2023-11-25T12:10:07.872Z,4.66
2023-11-25T12:12:41.961Z,4.67
2023-11-25T12:15:10.160Z,4.70
2023-11-25T12:17:37.704Z,4.57
2023-11-25T12:20:09.831Z,4.51
2023-11-25T12:22:37.034Z,4.51
2023-11-25T12:25:05.570Z,4.46
2023-11-25T12:27:34.200Z,4.45
2023-11-25T12:30:01.649Z,4.52
2023-11-25T12:32:28.717Z,4.59
2023-11-25T12:34:55.821Z,4.61
2023-11-25T12:37:23.094Z,4.60
2023-11-25T12:39:52.012Z,4.54
2023-11-25T12:42:25.217Z,4.57
2023-11-25T12:44:52.358Z,4.72
2023-11-25T12:47:20.247Z,4.71
2023-11-25T12:49:48.852Z,4.65
2023-11-25T12:52:24.581Z,4.64
2023-11-25T12:54:54.170Z,4.69
2023-11-25T12:57:27.301Z,4.67
2023-11-25T12:59:56.774Z,4.69
2023-11-25T13:02:23.982Z,4.72
2023-11-25T13:04:51.633Z,4.71
2023-11-25T13:07:31.953Z,4.77
2023-11-25T13:09:59.600Z,4.74
2023-11-25T13:12:29.696Z,4.74
2023-11-25T13:14:57.038Z,4.77
2023-11-25T13:17:25.210Z,4.70
2023-11-25T13:19:52.384Z,4.73
2023-11-25T13:22:20.799Z,4.82
2023-11-25T13:24:47.977Z,4.86
2023-11-25T13:27:15.170Z,4.98
2023-11-25T13:29:45.910Z,5.01
2023-11-25T13:32:13.008Z,4.93
2023-11-25T13:34:41.455Z,4.89
2023-11-25T13:37:09.290Z,4.95
2023-11-25T13:39:37.192Z,5.05
2023-11-25T13:42:06.196Z,5.06
2023-11-25T13:44:33.417Z,5.05
2023-11-25T13:47:00.593Z,5.12
2023-11-25T13:49:30.735Z,5.19
2023-11-25T13:51:58.600Z,5.15
2023-11-25T13:54:30.139Z,5.08
2023-11-25T13:56:57.782Z,5.16
2023-11-25T13:59:25.508Z,5.24
2023-11-25T14:01:52.767Z,5.32
2023-11-25T14:04:20.846Z,5.22
2023-11-25T14:06:51.764Z,5.24
2023-11-25T14:09:19.571Z,5.49
2023-11-25T14:11:47.020Z,5.55
2023-11-25T14:14:14.266Z,5.55
2023-11-25T14:16:46.430Z,5.55
2023-11-25T14:19:13.778Z,5.52
2023-11-25T14:21:40.719Z,5.49
2023-11-25T14:24:08.098Z,5.37
2023-11-25T14:26:38.418Z,5.25
2023-11-25T14:29:05.808Z,5.34
2023-11-25T14:31:35.677Z,5.47
2023-11-25T14:34:03.092Z,5.46
2023-11-25T14:36:31.655Z,5.64
2023-11-25T14:38:58.822Z,5.76
2023-11-25T14:41:26.451Z,5.60
2023-11-25T14:43:54.855Z,5.52
2023-11-25T14:46:23.412Z,5.43
2023-11-25T14:48:50.575Z,5.44
2023-11-25T14:51:17.554Z,5.37
2023-11-25T14:53:44.580Z,5.29
2023-11-25T14:56:12.083Z,5.23
2023-11-25T14:58:39.320Z,5.23
2023-11-25T15:01:07.226Z,5.21
2023-11-25T15:03:34.382Z,5.20
2023-11-25T15:06:01.423Z,5.22
2023-11-25T15:08:28.386Z,5.21
2023-11-25T15:10:57.466Z,5.15
2023-11-25T15:13:24.549Z,5.17
2023-11-25T15:15:52.614Z,5.05
2023-11-25T15:18:19.871Z,5.14
2023-11-25T15:20:47.026Z,5.12
2023-11-25T15:23:14.295Z,5.00
2023-11-25T15:25:41.633Z,4.98
2023-11-25T15:28:08.921Z,4.95
2023-11-25T15:30:35.911Z,5.02
2023-11-25T15:33:03.217Z,5.06
2023-11-25T15:35:30.481Z,5.06
2023-11-25T15:37:57.528Z,4.96
2023-11-25T15:40:24.670Z,5.06
2023-11-25T15:42:51.765Z,5.03
2023-11-25T15:45:19.122Z,5.00
2023-11-25T15:47:46.915Z,5.01
2023-11-25T15:50:16.321Z,5.07
2023-11-25T15:52:43.773Z,5.08
2023-11-25T15:55:12.874Z,5.12
2023-11-25T15:57:40.194Z,5.00
2023-11-25T16:00:15.098Z,4.93
2023-11-25T16:02:43.242Z,4.92
2023-11-25T16:05:15.490Z,4.95
2023-11-25T16:07:42.863Z,5.02
2023-11-25T16:10:11.413Z,4.99
2023-11-25T16:12:39.631Z,5.07
2023-11-25T16:15:10.344Z,4.95
2023-11-25T16:17:38.582Z,5.00
2023-11-25T16:20:07.180Z,5.07
2023-11-25T16:22:34.385Z,5.10
2023-11-25T16:25:01.405Z,5.10
2023-11-25T16:27:28.658Z,5.08
2023-11-25T16:29:56.549Z,5.05
2023-11-25T16:32:23.813Z,5.01
2023-11-25T16:34:50.992Z,5.07
2023-11-25T16:37:18.102Z,5.05
2023-11-25T16:39:45.104Z,5.02
2023-11-25T16:42:12.193Z,5.03
2023-11-25T16:44:39.585Z,4.99
2023-11-25T16:47:06.737Z,5.04
2023-11-25T16:49:41.058Z,5.03
2023-11-25T16:52:10.424Z,5.06
2023-11-25T16:54:37.734Z,5.01
2023-11-25T16:57:04.711Z,5.05
2023-11-25T16:59:31.704Z,5.05
2023-11-25T17:01:58.880Z,5.13
2023-11-25T17:04:26.024Z,5.07
2023-11-25T17:06:53.060Z,5.02
2023-11-25T17:09:20.928Z,5.10
2023-11-25T17:11:47.904Z,5.12
2023-11-25T17:14:15.031Z,5.01
2023-11-25T17:16:42.201Z,4.95
2023-11-25T17:19:11.534Z,4.94
2023-11-25T17:21:38.511Z,5.06
2023-11-25T17:24:06.642Z,5.05
2023-11-25T17:26:33.708Z,5.03
2023-11-25T17:29:00.944Z,4.94
2023-11-25T17:31:28.217Z,5.02
2023-11-25T17:33:55.235Z,4.95
2023-11-25T17:36:22.178Z,5.02
2023-11-25T17:38:49.345Z,4.88
2023-11-25T17:41:19.383Z,4.91
2023-11-25T17:43:46.550Z,4.88
2023-11-25T17:46:14.566Z,4.98
2023-11-25T17:48:42.497Z,4.96
2023-11-25T17:51:09.682Z,4.96
2023-11-25T17:53:36.875Z,4.91
2023-11-25T17:56:04.405Z,4.89
2023-11-25T17:58:31.411Z,4.82
2023-11-25T18:00:58.694Z,4.80
2023-11-25T18:03:25.781Z,4.81
2023-11-25T18:05:52.781Z,4.78
2023-11-25T18:08:19.857Z,4.75
2023-11-25T18:10:47.035Z,4.82
2023-11-25T18:13:14.161Z,4.86
2023-11-25T18:15:41.291Z,4.89
2023-11-25T18:18:08.401Z,4.88
2023-11-25T18:20:35.560Z,4.91
2023-11-25T18:23:02.598Z,4.85
2023-11-25T18:25:30.431Z,4.83
2023-11-25T18:27:57.589Z,4.87
2023-11-25T18:30:25.724Z,4.91
2023-11-25T18:32:53.257Z,4.95
2023-11-25T18:35:20.269Z,4.96
2023-11-25T18:37:48.016Z,5.02
2023-11-25T18:40:15.908Z,5.00
2023-11-25T18:42:42.987Z,5.02
2023-11-25T18:45:10.911Z,5.01
2023-11-25T18:47:38.220Z,5.03
2023-11-25T18:50:06.483Z,5.06
2023-11-25T18:52:33.544Z,5.05
2023-11-25T18:55:00.669Z,5.00
2023-11-25T18:57:28.045Z,5.01
2023-11-25T18:59:55.120Z,5.01
2023-11-25T19:02:22.256Z,5.02
2023-11-25T19:04:49.435Z,5.00
2023-11-25T19:07:16.506Z,5.07
2023-11-25T19:09:43.483Z,5.08
2023-11-25T19:12:12.502Z,5.08
2023-11-25T19:14:39.531Z,5.09
2023-11-25T19:17:09.046Z,5.05
2023-11-25T19:19:36.640Z,5.03
2023-11-25T19:22:04.715Z,5.14
2023-11-25T19:24:31.844Z,5.08
2023-11-25T19:26:58.902Z,5.13
2023-11-25T19:29:26.224Z,5.18
2023-11-25T19:31:53.406Z,5.07
2023-11-25T19:34:20.524Z,5.07
2023-11-25T19:36:48.430Z,5.08
2023-11-25T19:39:17.041Z,5.13
2023-11-25T19:41:44.142Z,5.19
2023-11-25T19:44:11.285Z,5.13
2023-11-25T19:46:38.353Z,4.99
2023-11-25T19:49:06.025Z,5.01
2023-11-25T19:51:33.115Z,5.09
2023-11-25T19:54:01.816Z,5.14
2023-11-25T19:56:32.110Z,5.19
2023-11-25T19:58:59.191Z,5.23
2023-11-25T20:01:26.221Z,5.20
2023-11-25T20:03:53.265Z,5.20
2023-11-25T20:06:20.331Z,5.26
2023-11-25T20:08:47.417Z,5.14
2023-11-25T20:11:14.466Z,5.05
2023-11-25T20:13:41.482Z,5.06
2023-11-25T20:16:08.818Z,4.99
2023-11-25T20:18:35.915Z,5.05
2023-11-25T20:21:02.930Z,5.01
2023-11-25T20:23:29.968Z,4.93
2023-11-25T20:25:56.955Z,4.84
2023-11-25T20:28:24.132Z,4.80
2023-11-25T20:30:51.110Z,4.77
2023-11-25T20:33:18.125Z,4.74
2023-11-25T20:35:45.163Z,4.70
2023-11-25T20:38:12.228Z,4.69
2023-11-25T20:40:39.387Z,4.75
2023-11-25T20:43:06.502Z,4.77
2023-11-25T20:45:35.897Z,4.84
2023-11-25T20:48:05.392Z,5.00
2023-11-25T20:50:34.689Z,4.88
2023-11-25T20:53:03.456Z,4.92
2023-11-25T20:55:30.587Z,4.92
2023-11-25T20:57:57.724Z,4.91
2023-11-25T21:00:24.918Z,5.00
2023-11-25T21:02:52.031Z,5.03
2023-11-25T21:05:20.808Z,5.20
2023-11-25T21:07:47.830Z,5.18
2023-11-25T21:10:15.956Z,5.07
2023-11-25T21:12:43.087Z,5.07
2023-11-25T21:15:10.682Z,4.95
2023-11-25T21:17:37.826Z,4.99
2023-11-25T21:20:06.192Z,5.00
2023-11-25T21:22:34.241Z,5.07
2023-11-25T21:25:02.911Z,5.14
2023-11-25T21:27:31.970Z,5.24
2023-11-25T21:29:58.964Z,5.32
2023-11-25T21:32:30.070Z,5.38
2023-11-25T21:34:57.278Z,5.37
2023-11-25T21:37:24.882Z,5.23
2023-11-25T21:39:52.350Z,5.24
2023-11-25T21:42:19.555Z,5.36
2023-11-25T21:44:47.991Z,5.42
2023-11-25T21:47:16.197Z,5.58
2023-11-25T21:49:43.533Z,5.67
2023-11-25T21:52:11.312Z,5.72
2023-11-25T21:54:39.867Z,5.77
2023-11-25T21:57:08.480Z,5.82
2023-11-25T21:59:35.536Z,5.60
2023-11-25T22:02:02.917Z,5.52
2023-11-25T22:04:30.152Z,5.45
2023-11-25T22:06:57.113Z,5.31
2023-11-25T22:09:24.226Z,5.24
2023-11-25T22:11:51.297Z,5.36
2023-11-25T22:14:18.411Z,5.48
2023-11-25T22:16:46.009Z,5.51
2023-11-25T22:19:13.301Z,5.55
2023-11-25T22:21:41.124Z,5.62
2023-11-25T22:24:12.522Z,5.49
2023-11-25T22:26:48.657Z,5.51
2023-11-25T22:29:15.899Z,5.63
2023-11-25T22:31:43.596Z,5.61
2023-11-25T22:34:12.406Z,5.45
2023-11-25T22:36:39.680Z,5.30
2023-11-25T22:39:08.140Z,5.34
2023-11-25T22:41:36.257Z,5.36
2023-11-25T22:44:03.532Z,5.31
2023-11-25T22:46:30.692Z,5.33
2023-11-25T22:48:57.750Z,5.28
2023-11-25T22:51:25.488Z,5.15
2023-11-25T22:53:54.709Z,5.04
2023-11-25T22:56:21.716Z,4.94
2023-11-25T22:58:48.708Z,4.95
2023-11-25T23:01:26.250Z,5.05
2023-11-25T23:03:56.181Z,5.13
2023-11-25T23:06:24.671Z,5.32
2023-11-25T23:08:53.814Z,5.32
2023-11-25T23:11:22.125Z,5.35
2023-11-25T23:13:50.647Z,5.41
2023-11-25T23:16:19.633Z,5.51
2023-11-25T23:18:46.807Z,5.55
2023-11-25T23:21:13.754Z,5.40
2023-11-25T23:23:46.432Z,5.31
2023-11-25T23:26:16.234Z,5.22
2023-11-25T23:28:43.749Z,5.19
2023-11-25T23:31:10.817Z,5.13
2023-11-25T23:33:38.803Z,5.08
2023-11-25T23:36:06.421Z,4.99
2023-11-25T23:38:34.224Z,4.84
2023-11-25T23:41:01.840Z,4.71
2023-11-25T23:43:29.895Z,4.62
2023-11-25T23:45:57.710Z,4.61
2023-11-25T23:48:24.949Z,4.57
2023-11-25T23:50:52.445Z,4.55
2023-11-25T23:53:22.268Z,4.63
2023-11-25T23:55:50.379Z,4.70
2023-11-25T23:58:17.545Z,4.55
